MET'MAP v2.0
soon released !

Expected late october,
this new version will be
more efficient, smarter,
and hosted on a brand new
server x3 powerfull...
...and still free !


Not compatible ?
Try the mobile version !

LOG IN : | Subscribe | Disclaimer | Who is Orbifly ? |
ICAO code :

TAF - LRCK Constanta - 29 May 2020 09:53 UTC - Data Source NOAA   


- Airport Elevation : 353 ft
- IATA code : CND
- No reported NOTAMs.


LRCK - Constanta

Latest METAR recorded : 2015/08/11 08:00 LRCK 110800Z 07014KT 040V100 CAVOK 31/14 Q1010 NOSIG
TAF TAF LRCK
Valid from the 29 at 06:00 until the 30 at 06:00 UTC


290500Z 2906/3006 28010KT CAVOK
TEMPO 2911/2916 VRB20KT 5000 TSRA BKN010 SCT030CB
TEMPO 2921/3002 5000 TSRA BKN015 SCT035CB

Source NOAA


MET'MAP, your aeronautical weather chart ! - Copyright ORBIFLY December 2007

Programming & Development : Alexandra Zaïnal
Co-Developer : Marc-Olivier Méhu
Technical & hardware support : Manuel Goepfert
Concept & Financing : Baudouin d'Aumeries